createdAt,value
2017-08-07T00:00:57.055Z,99595.20
2017-08-07T00:03:24.619Z,99592.48
2017-08-07T00:05:52.132Z,99594.02
2017-08-07T00:08:19.689Z,99586.64
2017-08-07T00:10:47.225Z,99587.78
2017-08-07T00:13:14.783Z,99587.41
2017-08-07T00:15:42.300Z,99586.70
2017-08-07T00:18:09.816Z,99590.38
2017-08-07T00:20:37.370Z,99584.58
2017-08-07T00:23:04.900Z,99578.67
2017-08-07T00:25:32.481Z,99585.78
2017-08-07T00:28:00.000Z,99587.20
2017-08-07T00:30:27.568Z,99578.56
2017-08-07T00:32:55.094Z,99570.91
2017-08-07T00:35:22.635Z,99575.86
2017-08-07T00:37:50.154Z,99575.55
2017-08-07T00:40:17.709Z,99574.42
2017-08-07T00:42:45.238Z,99574.00
2017-08-07T00:45:12.798Z,99577.50
2017-08-07T00:47:40.358Z,99571.94
2017-08-07T00:50:07.913Z,99575.45
2017-08-07T00:52:35.432Z,99570.49
2017-08-07T00:55:02.979Z,99579.77
2017-08-07T00:57:30.540Z,99577.61
2017-08-07T00:59:58.076Z,99570.67
2017-08-07T01:02:25.597Z,99566.48
2017-08-07T01:04:53.163Z,99565.01
2017-08-07T01:07:20.681Z,99563.69
2017-08-07T01:09:48.202Z,99561.45
2017-08-07T01:12:15.776Z,99558.98
2017-08-07T01:14:43.295Z,99553.18
2017-08-07T01:17:10.844Z,99548.14
2017-08-07T01:19:38.435Z,99551.36
2017-08-07T01:22:06.015Z,99542.98
2017-08-07T01:24:33.573Z,99546.65
2017-08-07T01:27:01.124Z,99543.95
2017-08-07T01:29:28.640Z,99539.11
2017-08-07T01:31:56.194Z,99536.18
2017-08-07T01:34:23.716Z,99537.36
2017-08-07T01:36:51.266Z,99539.16
2017-08-07T01:39:18.789Z,99538.89
2017-08-07T01:41:46.354Z,99527.67
2017-08-07T01:44:13.915Z,99528.38
2017-08-07T01:46:41.482Z,99530.51
2017-08-07T01:49:09.039Z,99537.69
2017-08-07T01:51:36.595Z,99537.45
2017-08-07T01:54:04.133Z,99530.55
2017-08-07T01:56:31.700Z,99524.48
2017-08-07T01:58:59.275Z,99520.41
2017-08-07T02:01:26.803Z,99525.41
2017-08-07T02:03:54.355Z,99526.52
2017-08-07T02:06:21.874Z,99522.08
2017-08-07T02:08:49.438Z,99525.85
2017-08-07T02:11:16.950Z,99530.84
2017-08-07T02:13:44.513Z,99523.14
2017-08-07T02:16:12.063Z,99522.19
2017-08-07T02:18:39.620Z,99522.20
2017-08-07T02:21:07.144Z,99526.39
2017-08-07T02:23:34.717Z,99521.23
2017-08-07T02:26:02.253Z,99516.67
2017-08-07T02:28:29.914Z,99521.23
2017-08-07T02:30:57.445Z,99514.64
2017-08-07T02:33:25.009Z,99512.78
2017-08-07T02:35:52.649Z,99507.76
2017-08-07T02:38:20.194Z,99512.63
2017-08-07T02:40:47.742Z,99511.41
2017-08-07T02:43:15.306Z,99510.61
2017-08-07T02:45:42.834Z,99504.38
2017-08-07T02:48:10.405Z,99510.61
2017-08-07T02:50:37.922Z,99500.71
2017-08-07T02:53:05.440Z,99501.53
2017-08-07T02:55:32.991Z,99500.20
2017-08-07T02:58:00.518Z,99496.97
2017-08-07T03:00:28.105Z,99497.38
2017-08-07T03:02:55.631Z,99494.41
2017-08-07T03:05:23.190Z,99492.38
2017-08-07T03:07:50.720Z,99492.94
2017-08-07T03:10:18.537Z,99494.97
2017-08-07T03:12:46.056Z,99491.33
2017-08-07T03:15:13.607Z,99491.56
2017-08-07T03:17:41.126Z,99486.20
2017-08-07T03:20:08.680Z,99492.63
2017-08-07T03:22:36.213Z,99498.16
2017-08-07T03:25:03.869Z,99492.22
2017-08-07T03:27:31.401Z,99492.22
2017-08-07T03:29:58.989Z,99489.91
2017-08-07T03:32:26.518Z,99492.48
2017-08-07T03:34:54.070Z,99491.13
2017-08-07T03:37:21.585Z,99486.27
2017-08-07T03:39:49.140Z,99483.53
2017-08-07T03:42:16.659Z,99481.12
2017-08-07T03:44:44.222Z,99477.23
2017-08-07T03:47:11.885Z,99475.19
2017-08-07T03:49:39.401Z,99472.62
2017-08-07T03:52:06.962Z,99472.33
2017-08-07T03:54:34.510Z,99467.45
2017-08-07T03:57:02.060Z,99460.60
2017-08-07T03:59:29.582Z,99463.14
2017-08-07T04:01:57.139Z,99458.31
2017-08-07T04:04:24.658Z,99462.61
2017-08-07T04:06:52.217Z,99455.38
2017-08-07T04:09:19.750Z,99457.66
2017-08-07T04:11:47.309Z,99459.42
2017-08-07T04:14:14.844Z,99459.70
2017-08-07T04:16:42.503Z,99457.97
2017-08-07T04:19:10.030Z,99458.09
2017-08-07T04:21:37.606Z,99457.53
2017-08-07T04:24:05.166Z,99452.96
2017-08-07T04:26:32.689Z,99460.52
2017-08-07T04:29:00.254Z,99465.63
2017-08-07T04:31:27.809Z,99465.78
2017-08-07T04:33:55.393Z,99471.02
2017-08-07T04:36:22.922Z,99465.52
2017-08-07T04:38:50.482Z,99463.94
2017-08-07T04:41:18.154Z,99462.83
2017-08-07T04:43:45.811Z,99463.64
2017-08-07T04:46:13.323Z,99454.72
2017-08-07T04:48:40.873Z,99456.89
2017-08-07T04:51:08.399Z,99452.94
2017-08-07T04:53:35.955Z,99447.36
2017-08-07T04:56:03.514Z,99446.68
2017-08-07T04:58:31.081Z,99452.77
2017-08-07T05:00:58.607Z,99451.70
2017-08-07T05:03:26.185Z,99452.34
2017-08-07T05:05:53.714Z,99453.67
2017-08-07T05:08:21.268Z,99447.48
2017-08-07T05:10:48.788Z,99451.52
2017-08-07T05:13:16.353Z,99451.94
2017-08-07T05:15:43.869Z,99458.14
2017-08-07T05:18:11.440Z,99449.88
2017-08-07T05:20:39.003Z,99444.87
2017-08-07T05:23:06.532Z,99442.16
2017-08-07T05:25:34.120Z,99454.20
2017-08-07T05:28:01.653Z,99443.91
2017-08-07T05:30:29.219Z,99439.61
2017-08-07T05:32:56.737Z,99443.34
2017-08-07T05:35:24.282Z,99436.47
2017-08-07T05:37:51.805Z,99440.53
2017-08-07T05:40:19.373Z,99436.47
2017-08-07T05:42:46.889Z,99444.44
2017-08-07T05:45:14.450Z,99451.45
2017-08-07T05:47:41.970Z,99446.33
2017-08-07T05:50:09.595Z,99448.34
2017-08-07T05:52:37.148Z,99445.65
2017-08-07T05:55:04.690Z,99442.52
2017-08-07T05:57:32.214Z,99449.12
2017-08-07T05:59:59.764Z,99449.82
2017-08-07T06:02:27.290Z,99449.27
2017-08-07T06:04:54.878Z,99450.08
2017-08-07T06:07:22.391Z,99445.75
2017-08-07T06:09:49.910Z,99446.03
2017-08-07T06:12:17.454Z,99438.22
2017-08-07T06:14:45.008Z,99442.07
2017-08-07T06:17:12.562Z,99440.87
2017-08-07T06:19:40.078Z,99438.14
2017-08-07T06:22:07.621Z,99435.70
2017-08-07T06:24:35.156Z,99435.20
2017-08-07T06:27:02.831Z,99433.14
2017-08-07T06:29:32.092Z,99430.82
2017-08-07T06:32:01.119Z,99429.48
2017-08-07T06:34:30.160Z,99431.24
2017-08-07T06:36:59.227Z,99424.74
2017-08-07T06:39:27.658Z,99427.58
2017-08-07T06:41:55.948Z,99425.66
2017-08-07T06:44:24.789Z,99427.84
2017-08-07T06:46:52.390Z,99420.58
2017-08-07T06:49:19.910Z,99426.35
2017-08-07T06:51:47.463Z,99415.38
2017-08-07T06:54:14.981Z,99414.84
2017-08-07T06:56:42.537Z,99419.58
2017-08-07T06:59:10.059Z,99419.59
2017-08-07T07:01:37.573Z,99416.59
2017-08-07T07:04:05.116Z,99416.20
2017-08-07T07:06:32.637Z,99415.25
2017-08-07T07:09:00.191Z,99417.93
2017-08-07T07:11:27.792Z,99409.80
2017-08-07T07:13:55.345Z,99418.65
2017-08-07T07:16:22.857Z,99408.59
2017-08-07T07:18:50.417Z,99412.77
2017-08-07T07:21:18.028Z,99407.50
2017-08-07T07:23:45.584Z,99400.74
2017-08-07T07:26:13.097Z,99405.33
2017-08-07T07:28:40.651Z,99404.65
2017-08-07T07:31:08.164Z,99406.42
2017-08-07T07:33:35.709Z,99393.20
2017-08-07T07:36:03.230Z,99399.39
2017-08-07T07:38:30.797Z,99395.48
2017-08-07T07:40:58.316Z,99391.67
2017-08-07T07:43:25.861Z,99380.03
2017-08-07T07:45:53.376Z,99380.99
2017-08-07T07:48:20.938Z,99378.53
2017-08-07T07:50:48.481Z,99382.75
2017-08-07T07:53:15.999Z,99372.97
2017-08-07T07:55:43.549Z,99367.95
2017-08-07T07:58:11.066Z,99370.63
2017-08-07T08:00:38.629Z,99366.73
2017-08-07T08:03:06.424Z,99365.52
2017-08-07T08:05:35.094Z,99367.31
2017-08-07T08:08:03.303Z,99367.41
2017-08-07T08:10:31.161Z,99350.64
2017-08-07T08:12:58.775Z,99360.78
2017-08-07T08:15:27.269Z,99358.73
2017-08-07T08:17:56.228Z,99357.97
2017-08-07T08:20:23.955Z,99357.63
2017-08-07T08:22:51.746Z,99349.36
2017-08-07T08:25:19.817Z,99349.36
2017-08-07T08:27:47.855Z,99347.08
2017-08-07T08:30:15.657Z,99346.00
2017-08-07T08:32:43.189Z,99341.36
2017-08-07T08:35:10.746Z,99336.78
2017-08-07T08:37:38.265Z,99338.55
2017-08-07T08:40:05.881Z,99342.44
2017-08-07T08:42:33.429Z,99342.03
2017-08-07T08:45:00.945Z,99338.61
2017-08-07T08:47:28.554Z,99333.62
2017-08-07T08:49:56.068Z,99333.49
2017-08-07T08:52:23.629Z,99324.05
2017-08-07T08:54:51.152Z,99335.81
2017-08-07T08:57:18.734Z,99326.03
2017-08-07T08:59:46.348Z,99323.05
2017-08-07T09:02:13.866Z,99329.00
2017-08-07T09:04:41.427Z,99322.52
2017-08-07T09:07:08.954Z,99321.00
2017-08-07T09:09:36.508Z,99316.72
2017-08-07T09:12:04.043Z,99313.45
2017-08-07T09:14:31.603Z,99309.77
2017-08-07T09:16:59.122Z,99308.42
2017-08-07T09:19:26.676Z,99306.29
2017-08-07T09:21:54.202Z,99310.99
2017-08-07T09:24:21.778Z,99305.47
2017-08-07T09:26:49.300Z,99302.04
2017-08-07T09:29:16.837Z,99295.41
2017-08-07T09:31:44.391Z,99299.20
2017-08-07T09:34:11.904Z,99300.80
2017-08-07T09:36:39.479Z,99292.00
2017-08-07T09:39:07.002Z,99295.92
2017-08-07T09:41:34.546Z,99298.36
2017-08-07T09:44:02.062Z,99294.44
2017-08-07T09:46:29.613Z,99291.30
2017-08-07T09:48:57.146Z,99291.19
2017-08-07T09:51:24.698Z,99295.90
2017-08-07T09:53:52.247Z,99289.30
2017-08-07T09:56:19.798Z,99280.05
2017-08-07T09:58:47.314Z,99280.05
2017-08-07T10:01:14.911Z,99281.94
2017-08-07T10:03:42.434Z,99279.50
2017-08-07T10:06:09.980Z,99275.03
2017-08-07T10:08:37.498Z,99274.80
2017-08-07T10:11:05.054Z,99271.11
2017-08-07T10:13:32.580Z,99268.14
2017-08-07T10:16:00.135Z,99268.92
2017-08-07T10:18:27.657Z,99270.78
2017-08-07T10:20:55.194Z,99270.24
2017-08-07T10:23:22.736Z,99267.53
2017-08-07T10:25:50.262Z,99260.47
2017-08-07T10:28:17.805Z,99259.95
2017-08-07T10:30:45.339Z,99263.31
2017-08-07T10:33:12.888Z,99266.02
2017-08-07T10:35:40.405Z,99258.30
2017-08-07T10:38:07.954Z,99256.01
2017-08-07T10:40:35.480Z,99248.39
2017-08-07T10:43:03.032Z,99243.52
2017-08-07T10:45:30.559Z,99247.31
2017-08-07T10:47:58.135Z,99237.47
2017-08-07T10:50:25.651Z,99240.28
2017-08-07T10:52:53.195Z,99237.17
2017-08-07T10:55:20.815Z,99229.18
2017-08-07T10:57:48.380Z,99227.83
2017-08-07T11:00:15.903Z,99228.38
2017-08-07T11:02:43.483Z,99228.38
2017-08-07T11:05:11.017Z,99220.86
2017-08-07T11:07:38.537Z,99226.27
2017-08-07T11:10:06.080Z,99224.69
2017-08-07T11:12:33.599Z,99222.35
2017-08-07T11:15:01.165Z,99220.28
2017-08-07T11:17:28.682Z,99217.61
2017-08-07T11:19:56.313Z,99209.46
2017-08-07T11:22:23.835Z,99202.66
2017-08-07T11:24:51.532Z,99203.88
2017-08-07T11:27:19.060Z,99197.95
2017-08-07T11:29:46.618Z,99194.23
2017-08-07T11:32:14.131Z,99193.86
2017-08-07T11:34:41.679Z,99192.74
2017-08-07T11:37:09.190Z,99184.80
2017-08-07T11:39:36.801Z,99191.52
2017-08-07T11:42:04.320Z,99189.22
2017-08-07T11:44:31.841Z,99193.02
2017-08-07T11:46:59.391Z,99185.27
2017-08-07T11:49:27.026Z,99187.43
2017-08-07T11:51:54.588Z,99172.58
2017-08-07T11:54:22.107Z,99169.73
2017-08-07T11:56:49.709Z,99172.64
2017-08-07T11:59:17.270Z,99172.81
2017-08-07T12:01:44.828Z,99170.23
2017-08-07T12:04:12.359Z,99167.12
2017-08-07T12:06:39.909Z,99161.54
2017-08-07T12:09:07.438Z,99154.97
2017-08-07T12:11:34.986Z,99157.00
2017-08-07T12:14:03.816Z,99154.50
2017-08-07T12:16:31.712Z,99150.37
2017-08-07T12:19:00.369Z,99144.95
2017-08-07T12:21:28.897Z,99152.57
2017-08-07T12:23:57.390Z,99157.41
2017-08-07T12:26:26.528Z,99143.60
2017-08-07T12:28:54.638Z,99145.89
2017-08-07T12:31:23.366Z,99139.36
2017-08-07T12:33:51.719Z,99135.44
2017-08-07T12:36:19.779Z,99132.59
2017-08-07T12:38:47.354Z,99127.18
2017-08-07T12:41:14.875Z,99133.81
2017-08-07T12:43:42.430Z,99129.66
2017-08-07T12:46:09.954Z,99130.21
2017-08-07T12:48:37.504Z,99126.38
2017-08-07T12:51:05.019Z,99117.52
2017-08-07T12:53:32.584Z,99117.13
2017-08-07T12:56:00.107Z,99111.84
2017-08-07T12:58:27.660Z,99111.08
2017-08-07T13:00:55.183Z,99116.58
2017-08-07T13:03:22.731Z,99117.08
2017-08-07T13:05:50.247Z,99111.80
2017-08-07T13:08:17.802Z,99103.27
2017-08-07T13:10:45.317Z,99105.77
2017-08-07T13:13:12.876Z,99104.54
2017-08-07T13:15:40.397Z,99100.56
2017-08-07T13:18:07.955Z,99100.52
2017-08-07T13:20:35.478Z,99098.22
2017-08-07T13:23:03.001Z,99102.37
2017-08-07T13:25:30.569Z,99105.30
2017-08-07T13:27:58.100Z,99096.86
2017-08-07T13:30:25.661Z,99095.10
2017-08-07T13:32:53.190Z,99094.39
2017-08-07T13:35:20.744Z,99092.45
2017-08-07T13:37:48.265Z,99090.69
2017-08-07T13:40:15.822Z,99088.02
2017-08-07T13:42:43.336Z,99084.69
2017-08-07T13:45:10.901Z,99083.64
2017-08-07T13:47:38.419Z,99082.39
2017-08-07T13:50:05.962Z,99078.59
2017-08-07T13:52:33.477Z,99079.13
2017-08-07T13:55:01.023Z,99077.38
2017-08-07T13:57:28.540Z,99081.28
2017-08-07T13:59:56.086Z,99076.82
2017-08-07T14:02:23.599Z,99067.74
2017-08-07T14:04:51.171Z,99062.24
2017-08-07T14:07:18.688Z,99065.45
2017-08-07T14:09:46.209Z,99057.86
2017-08-07T14:12:13.754Z,99050.78
2017-08-07T14:14:41.279Z,99046.03
2017-08-07T14:17:08.829Z,99041.29
2017-08-07T14:19:36.359Z,99039.27
2017-08-07T14:22:03.927Z,99044.13
2017-08-07T14:24:31.452Z,99044.23
2017-08-07T14:26:59.005Z,99042.88
2017-08-07T14:29:26.539Z,99041.66
2017-08-07T14:31:54.090Z,99045.71
2017-08-07T14:34:21.614Z,99044.54
2017-08-07T14:36:49.173Z,99039.58
2017-08-07T14:39:16.690Z,99034.88
2017-08-07T14:41:44.241Z,99029.01
2017-08-07T14:44:11.757Z,99024.40
2017-08-07T14:46:39.278Z,99022.11
2017-08-07T14:49:06.831Z,99021.83
2017-08-07T14:51:34.357Z,99021.23
2017-08-07T14:54:01.898Z,99021.78
2017-08-07T14:56:29.421Z,99014.61
2017-08-07T14:58:56.977Z,99017.31
2017-08-07T15:01:24.490Z,99010.14
2017-08-07T15:03:52.033Z,98999.43
2017-08-07T15:06:19.565Z,98994.16
2017-08-07T15:08:47.142Z,98997.27
2017-08-07T15:11:14.662Z,98996.14
2017-08-07T15:13:42.214Z,98998.44
2017-08-07T15:16:09.721Z,98994.20
2017-08-07T15:18:37.272Z,98990.40
2017-08-07T15:21:04.798Z,98987.42
2017-08-07T15:23:32.345Z,98984.12
2017-08-07T15:25:59.865Z,98994.32
2017-08-07T15:28:27.429Z,98991.30
2017-08-07T15:30:54.956Z,98992.92
2017-08-07T15:33:22.471Z,98992.66
2017-08-07T15:35:50.017Z,98988.85
2017-08-07T15:38:17.536Z,98982.31
2017-08-07T15:40:45.082Z,98983.79
2017-08-07T15:43:12.602Z,98973.19
2017-08-07T15:45:40.171Z,98973.19
2017-08-07T15:48:07.694Z,98964.28
2017-08-07T15:50:35.237Z,98960.77
2017-08-07T15:53:02.757Z,98965.46
2017-08-07T15:55:30.308Z,98967.62
2017-08-07T15:57:57.830Z,98964.37
2017-08-07T16:00:25.385Z,98959.22
2017-08-07T16:02:52.900Z,98955.93
2017-08-07T16:05:20.450Z,98958.50
2017-08-07T16:07:47.977Z,98958.36
2017-08-07T16:10:15.526Z,98957.55
2017-08-07T16:12:43.040Z,98945.30
2017-08-07T16:15:10.587Z,98947.78
2017-08-07T16:17:38.102Z,98943.72
2017-08-07T16:20:05.741Z,98936.77
2017-08-07T16:22:33.275Z,98929.01
2017-08-07T16:25:00.799Z,98931.41
2017-08-07T16:27:28.354Z,98930.11
2017-08-07T16:30:01.701Z,98933.72
2017-08-07T16:32:29.256Z,98928.50
2017-08-07T16:34:56.783Z,98929.16
2017-08-07T16:37:24.344Z,98930.66
2017-08-07T16:39:51.865Z,98924.98
2017-08-07T16:42:19.418Z,98919.91
2017-08-07T16:44:46.934Z,98914.41
2017-08-07T16:47:14.486Z,98913.71
2017-08-07T16:49:41.998Z,98922.22
2017-08-07T16:52:09.547Z,98929.66
2017-08-07T16:54:37.058Z,98917.72
2017-08-07T16:57:04.614Z,98922.19
2017-08-07T16:59:32.142Z,98925.54
2017-08-07T17:01:59.664Z,98921.47
2017-08-07T17:04:27.214Z,98921.33
2017-08-07T17:06:54.730Z,98916.72
2017-08-07T17:09:22.284Z,98916.55
2017-08-07T17:11:49.815Z,98915.85
2017-08-07T17:14:17.366Z,98910.03
2017-08-07T17:16:44.889Z,98911.13
2017-08-07T17:19:12.441Z,98904.06
2017-08-07T17:21:39.956Z,98901.75
2017-08-07T17:24:07.514Z,98897.83
2017-08-07T17:26:35.038Z,98894.43
2017-08-07T17:29:02.595Z,98895.38
2017-08-07T17:31:30.113Z,98897.23
2017-08-07T17:33:57.674Z,98889.78
2017-08-07T17:36:25.195Z,98890.31
2017-08-07T17:38:52.734Z,98890.05
2017-08-07T17:41:20.254Z,98888.00
2017-08-07T17:43:47.800Z,98878.92
2017-08-07T17:46:15.330Z,98878.66
2017-08-07T17:48:42.861Z,98879.95
2017-08-07T17:51:10.405Z,98879.47
2017-08-07T17:53:37.921Z,98875.41
2017-08-07T17:56:05.464Z,98882.41
2017-08-07T17:58:32.983Z,98880.04
2017-08-07T18:01:00.545Z,98876.44
2017-08-07T18:03:28.070Z,98873.50
2017-08-07T18:05:55.585Z,98877.39
2017-08-07T18:08:23.138Z,98870.61
2017-08-07T18:10:50.654Z,98875.63
2017-08-07T18:13:18.217Z,98875.75
2017-08-07T18:15:45.729Z,98877.50
2017-08-07T18:18:13.246Z,98870.12
2017-08-07T18:20:40.794Z,98871.91
2017-08-07T18:23:08.311Z,98872.86
2017-08-07T18:25:35.866Z,98872.43
2017-08-07T18:28:03.395Z,98873.53
2017-08-07T18:30:30.957Z,98866.80
2017-08-07T18:32:58.487Z,98872.08
2017-08-07T18:35:26.037Z,98872.08
2017-08-07T18:37:53.593Z,98872.69
2017-08-07T18:40:21.142Z,98866.41
2017-08-07T18:42:48.677Z,98866.43
2017-08-07T18:45:16.234Z,98866.08
2017-08-07T18:47:43.763Z,98865.71
2017-08-07T18:50:11.344Z,98861.06
2017-08-07T18:52:38.866Z,98856.05
2017-08-07T18:55:06.383Z,98860.03
2017-08-07T18:57:33.932Z,98859.94
2017-08-07T19:00:01.454Z,98866.05
2017-08-07T19:02:29.019Z,98862.77
2017-08-07T19:04:56.542Z,98856.91
2017-08-07T19:07:24.092Z,98857.61
2017-08-07T19:09:51.609Z,98856.56
2017-08-07T19:12:19.157Z,98852.53
2017-08-07T19:14:46.685Z,98862.88
2017-08-07T19:17:14.246Z,98864.87
2017-08-07T19:19:41.768Z,98866.96
2017-08-07T19:22:09.322Z,98865.05
2017-08-07T19:24:36.849Z,98870.41
2017-08-07T19:27:04.412Z,98872.31
2017-08-07T19:29:31.950Z,98874.22
2017-08-07T19:31:59.504Z,98877.38
2017-08-07T19:34:27.120Z,98873.20
2017-08-07T19:36:55.961Z,98865.67
2017-08-07T19:39:25.270Z,98866.28
2017-08-07T19:41:53.205Z,98867.66
2017-08-07T19:44:21.173Z,98868.11
2017-08-07T19:46:49.352Z,98871.78
2017-08-07T19:49:17.326Z,98875.30
2017-08-07T19:51:46.119Z,98873.77
2017-08-07T19:54:13.773Z,98878.09
2017-08-07T19:56:41.740Z,98879.50
2017-08-07T19:59:10.132Z,98875.98
2017-08-07T20:01:38.105Z,98871.42
2017-08-07T20:04:06.162Z,98875.25
2017-08-07T20:06:33.843Z,98878.92
2017-08-07T20:09:01.846Z,98882.70
2017-08-07T20:11:29.824Z,98880.20
2017-08-07T20:13:57.683Z,98872.18
2017-08-07T20:16:25.494Z,98869.61
2017-08-07T20:18:53.161Z,98863.78
2017-08-07T20:21:21.293Z,98869.06
2017-08-07T20:23:49.746Z,98864.55
2017-08-07T20:26:17.747Z,98861.36
2017-08-07T20:28:45.691Z,98860.12
2017-08-07T20:31:13.611Z,98861.54
2017-08-07T20:33:41.432Z,98856.74
2017-08-07T20:36:09.665Z,98849.00
2017-08-07T20:38:37.774Z,98845.83
2017-08-07T20:41:05.908Z,98839.64
2017-08-07T20:43:33.567Z,98833.80
2017-08-07T20:46:01.640Z,98837.20
2017-08-07T20:48:29.507Z,98842.27
2017-08-07T20:50:57.383Z,98837.46
2017-08-07T20:53:25.265Z,98836.03
2017-08-07T20:55:53.822Z,98833.28
2017-08-07T20:58:21.784Z,98830.80
2017-08-07T21:00:49.775Z,98830.84
2017-08-07T21:03:17.530Z,98829.81
2017-08-07T21:05:45.392Z,98831.24
2017-08-07T21:08:14.854Z,98828.67
2017-08-07T21:10:43.729Z,98827.83
2017-08-07T21:13:11.555Z,98830.01
2017-08-07T21:15:39.319Z,98827.62
2017-08-07T21:18:07.117Z,98818.28
2017-08-07T21:20:34.852Z,98819.70
2017-08-07T21:23:02.617Z,98831.01
2017-08-07T21:25:30.275Z,98835.16
2017-08-07T21:27:58.962Z,98833.63
2017-08-07T21:30:26.828Z,98838.89
2017-08-07T21:32:54.454Z,98837.88
2017-08-07T21:35:22.153Z,98838.09
2017-08-07T21:37:49.727Z,98836.23
2017-08-07T21:40:17.273Z,98833.38
2017-08-07T21:42:44.822Z,98826.47
2017-08-07T21:45:12.353Z,98821.52
2017-08-07T21:47:39.953Z,98825.17
2017-08-07T21:50:07.478Z,98828.37
2017-08-07T21:52:35.030Z,98830.99
2017-08-07T21:55:02.558Z,98826.41
2017-08-07T21:57:30.117Z,98825.31
2017-08-07T21:59:57.634Z,98815.56
2017-08-07T22:02:25.160Z,98817.47
2017-08-07T22:04:52.709Z,98816.31
2017-08-07T22:07:20.224Z,98815.97
2017-08-07T22:09:47.777Z,98811.84
2017-08-07T22:12:15.353Z,98810.14
2017-08-07T22:14:42.903Z,98800.03
2017-08-07T22:17:10.417Z,98801.41
2017-08-07T22:19:37.975Z,98802.19
2017-08-07T22:22:05.501Z,98810.20
2017-08-07T22:24:33.053Z,98808.53
2017-08-07T22:27:00.578Z,98812.56
2017-08-07T22:29:28.150Z,98809.34
2017-08-07T22:31:55.679Z,98805.59
2017-08-07T22:34:23.205Z,98813.66
2017-08-07T22:36:50.843Z,98805.45
2017-08-07T22:39:18.364Z,98807.14
2017-08-07T22:41:45.960Z,98815.78
2017-08-07T22:44:13.475Z,98812.27
2017-08-07T22:46:41.080Z,98818.09
2017-08-07T22:49:08.609Z,98812.07
2017-08-07T22:51:36.199Z,98810.20
2017-08-07T22:54:03.710Z,98799.36
2017-08-07T22:56:31.262Z,98802.84
2017-08-07T22:58:58.805Z,98783.16
2017-08-07T23:01:26.333Z,98787.80
2017-08-07T23:03:53.894Z,98783.83
2017-08-07T23:06:21.413Z,98787.00
2017-08-07T23:08:48.963Z,98780.63
2017-08-07T23:11:16.498Z,98769.80
2017-08-07T23:13:44.062Z,98776.70
2017-08-07T23:16:11.619Z,98777.20
2017-08-07T23:18:39.184Z,98772.88
2017-08-07T23:21:06.739Z,98773.42
2017-08-07T23:23:34.295Z,98769.73
2017-08-07T23:26:01.818Z,98764.56
2017-08-07T23:28:29.389Z,98760.09
2017-08-07T23:30:56.907Z,98766.81
2017-08-07T23:33:24.442Z,98761.59
2017-08-07T23:35:51.997Z,98761.21
2017-08-07T23:38:19.530Z,98765.69
2017-08-07T23:40:47.087Z,98759.70
2017-08-07T23:43:14.674Z,98758.89
2017-08-07T23:45:42.235Z,98756.98
2017-08-07T23:48:09.753Z,98749.38
2017-08-07T23:50:37.297Z,98753.25
2017-08-07T23:53:04.812Z,98750.63
2017-08-07T23:55:32.382Z,98738.71
2017-08-07T23:57:59.994Z,98738.36
